createdAt,value
2023-03-24T00:00:35.743Z,99957.06
2023-03-24T00:03:03.084Z,99954.88
2023-03-24T00:05:30.965Z,99958.00
2023-03-24T00:08:02.193Z,99947.84
2023-03-24T00:10:35.138Z,99948.84
2023-03-24T00:13:02.895Z,99941.81
2023-03-24T00:15:31.569Z,99932.09
2023-03-24T00:17:59.050Z,99933.75
2023-03-24T00:20:26.876Z,99928.88
2023-03-24T00:22:59.365Z,99918.72
2023-03-24T00:25:36.217Z,99913.31
2023-03-24T00:28:05.921Z,99905.34
2023-03-24T00:30:35.228Z,99906.38
2023-03-24T00:33:02.538Z,99897.59
2023-03-24T00:35:29.616Z,99897.84
2023-03-24T00:37:56.633Z,99884.78
2023-03-24T00:40:23.621Z,99883.75
2023-03-24T00:42:50.802Z,99874.16
2023-03-24T00:45:23.076Z,99874.97
2023-03-24T00:47:54.202Z,99866.78
2023-03-24T00:50:27.162Z,99862.28
2023-03-24T00:52:55.959Z,99861.94
2023-03-24T00:55:23.249Z,99849.69
2023-03-24T00:57:50.835Z,99848.56
2023-03-24T01:00:21.357Z,99844.38
2023-03-24T01:02:54.440Z,99835.63
2023-03-24T01:05:23.453Z,99840.34
2023-03-24T01:07:56.310Z,99839.41
2023-03-24T01:10:26.994Z,99828.34
2023-03-24T01:12:56.898Z,99831.50
2023-03-24T01:15:27.908Z,99822.22
2023-03-24T01:17:57.648Z,99814.38
2023-03-24T01:20:25.252Z,99816.13
2023-03-24T01:22:52.961Z,99810.84
2023-03-24T01:25:23.179Z,99801.13
2023-03-24T01:27:52.264Z,99801.00
2023-03-24T01:30:23.259Z,99795.69
2023-03-24T01:32:51.994Z,99799.41
2023-03-24T01:35:22.499Z,99786.47
2023-03-24T01:37:49.804Z,99786.34
2023-03-24T01:40:20.157Z,99777.81
2023-03-24T01:42:47.258Z,99788.66
2023-03-24T01:45:56.279Z,99770.78
2023-03-24T01:48:30.597Z,99760.94
2023-03-24T01:51:03.886Z,99756.44
2023-03-24T01:53:34.050Z,99755.59
2023-03-24T01:56:03.814Z,99739.78
2023-03-24T01:58:35.623Z,99746.13
2023-03-24T02:01:04.684Z,99743.59
2023-03-24T02:03:36.582Z,99733.09
2023-03-24T02:06:06.799Z,99735.38
2023-03-24T02:08:41.096Z,99722.81
2023-03-24T02:11:09.394Z,99720.28
2023-03-24T02:13:36.448Z,99712.66
2023-03-24T02:16:24.077Z,99699.06
2023-03-24T02:19:14.884Z,99708.75
2023-03-24T02:22:26.305Z,99704.81
2023-03-24T02:25:46.713Z,99695.03
2023-03-24T02:28:32.067Z,99686.38
2023-03-24T02:31:56.433Z,99677.84
2023-03-24T02:35:15.539Z,99676.13
2023-03-24T02:38:16.855Z,99665.50
2023-03-24T02:40:56.343Z,99653.72
2023-03-24T02:43:42.366Z,99656.03
2023-03-24T02:46:21.367Z,99649.69
2023-03-24T02:49:07.073Z,99643.13
2023-03-24T02:51:43.464Z,99639.84
2023-03-24T02:54:17.339Z,99625.06
2023-03-24T02:56:54.167Z,99626.34
2023-03-24T02:59:31.987Z,99625.63
2023-03-24T03:02:06.999Z,99618.81
2023-03-24T03:04:41.756Z,99610.72
2023-03-24T03:07:11.590Z,99607.66
2023-03-24T03:09:47.656Z,99607.75
2023-03-24T03:12:19.362Z,99595.22
2023-03-24T03:14:51.480Z,99597.63
2023-03-24T03:17:23.673Z,99588.72
2023-03-24T03:19:56.212Z,99590.97
2023-03-24T03:22:28.817Z,99588.47
2023-03-24T03:25:01.277Z,99577.69
2023-03-24T03:27:38.891Z,99571.91
2023-03-24T03:30:15.327Z,99572.38
2023-03-24T03:32:54.312Z,99559.97
2023-03-24T03:35:29.627Z,99569.97
2023-03-24T03:38:09.833Z,99560.34
2023-03-24T03:40:42.972Z,99552.94
2023-03-24T03:43:11.709Z,99554.69
2023-03-24T03:45:38.708Z,99559.53
2023-03-24T03:48:06.576Z,99538.59
2023-03-24T03:50:34.365Z,99542.31
2023-03-24T03:53:01.360Z,99543.09
2023-03-24T03:55:28.475Z,99542.31
2023-03-24T03:57:55.849Z,99536.28
2023-03-24T04:00:26.208Z,99536.34
2023-03-24T04:03:27.809Z,99524.84
2023-03-24T04:06:02.035Z,99523.72
2023-03-24T04:08:45.116Z,99524.66
2023-03-24T04:11:46.276Z,99526.28
2023-03-24T04:14:38.123Z,99527.50
2023-03-24T04:17:19.382Z,99527.00
2023-03-24T04:20:06.393Z,99524.59
2023-03-24T04:22:54.079Z,99524.09
2023-03-24T04:25:35.186Z,99513.66
2023-03-24T04:28:14.210Z,99522.00
2023-03-24T04:30:46.368Z,99518.16
2023-03-24T04:33:25.057Z,99507.06
2023-03-24T04:36:01.601Z,99505.72
2023-03-24T04:38:32.757Z,99508.81
2023-03-24T04:41:01.418Z,99503.75
2023-03-24T04:43:36.873Z,99505.84
2023-03-24T04:46:05.577Z,99510.56
2023-03-24T04:48:34.031Z,99503.75
2023-03-24T04:51:04.006Z,99501.19
2023-03-24T04:53:30.985Z,99500.13
2023-03-24T04:56:24.592Z,99494.50
2023-03-24T04:58:51.613Z,99496.91
2023-03-24T05:01:21.384Z,99492.16
2023-03-24T05:03:49.828Z,99484.84
2023-03-24T05:06:17.429Z,99484.34
2023-03-24T05:08:44.377Z,99478.00
2023-03-24T05:11:11.682Z,99478.22
2023-03-24T05:13:38.591Z,99475.81
2023-03-24T05:16:06.918Z,99485.16
2023-03-24T05:18:33.818Z,99477.50
2023-03-24T05:21:02.021Z,99478.56
2023-03-24T05:23:28.921Z,99490.03
2023-03-24T05:25:55.945Z,99493.84
2023-03-24T05:28:23.603Z,99498.97
2023-03-24T05:30:50.712Z,99501.25
2023-03-24T05:33:17.625Z,99496.41
2023-03-24T05:35:44.826Z,99498.84
2023-03-24T05:38:13.410Z,99498.84
2023-03-24T05:40:41.137Z,99494.50
2023-03-24T05:43:08.611Z,99503.75
2023-03-24T05:45:35.781Z,99506.09
2023-03-24T05:48:02.790Z,99512.59
2023-03-24T05:50:29.900Z,99499.94
2023-03-24T05:52:57.226Z,99495.91
2023-03-24T05:55:25.563Z,99505.72
2023-03-24T05:57:53.902Z,99515.53
2023-03-24T06:00:21.259Z,99534.22
2023-03-24T06:02:48.275Z,99535.25
2023-03-24T06:05:15.400Z,99539.09
2023-03-24T06:07:42.525Z,99559.94
2023-03-24T06:10:11.373Z,99583.47
2023-03-24T06:12:40.432Z,99589.84
2023-03-24T06:15:10.084Z,99576.53
2023-03-24T06:17:37.482Z,99576.06
2023-03-24T06:20:11.706Z,99576.34
2023-03-24T06:22:38.643Z,99591.56
2023-03-24T06:25:09.614Z,99602.78
2023-03-24T06:27:36.768Z,99607.03
2023-03-24T06:30:08.544Z,99624.63
2023-03-24T06:32:35.909Z,99623.06
2023-03-24T06:35:03.595Z,99623.06
2023-03-24T06:37:30.593Z,99630.00
2023-03-24T06:39:57.660Z,99641.22
2023-03-24T06:42:24.734Z,99645.47
2023-03-24T06:44:51.651Z,99657.16
2023-03-24T06:47:19.904Z,99660.66
2023-03-24T06:49:46.860Z,99682.22
2023-03-24T06:52:13.879Z,99667.38
2023-03-24T06:54:42.117Z,99682.84
2023-03-24T06:57:09.283Z,99681.84
2023-03-24T06:59:36.232Z,99687.25
2023-03-24T07:02:03.253Z,99691.97
2023-03-24T07:04:36.405Z,99706.56
2023-03-24T07:07:19.726Z,99704.91
2023-03-24T07:09:50.698Z,99702.91
2023-03-24T07:12:17.686Z,99714.81
2023-03-24T07:14:44.686Z,99726.19
2023-03-24T07:17:17.034Z,99723.84
2023-03-24T07:19:48.355Z,99722.72
2023-03-24T07:22:15.398Z,99745.16
2023-03-24T07:24:42.476Z,99738.50
2023-03-24T07:27:09.379Z,99759.72
2023-03-24T07:29:36.375Z,99736.50
2023-03-24T07:32:03.960Z,99734.25
2023-03-24T07:34:32.068Z,99751.50
2023-03-24T07:37:01.745Z,99758.56
2023-03-24T07:39:29.194Z,99766.16
2023-03-24T07:41:56.973Z,99763.34
2023-03-24T07:44:23.945Z,99762.53
2023-03-24T07:46:50.931Z,99758.91
2023-03-24T07:49:19.831Z,99770.16
2023-03-24T07:51:47.199Z,99780.47
2023-03-24T07:54:15.435Z,99759.66
2023-03-24T07:56:42.423Z,99785.50
2023-03-24T07:59:12.334Z,99796.53
2023-03-24T08:01:39.384Z,99800.84
2023-03-24T08:04:06.791Z,99803.50
2023-03-24T08:06:34.720Z,99807.84
2023-03-24T08:09:01.714Z,99810.91
2023-03-24T08:11:30.520Z,99816.25
2023-03-24T08:13:58.388Z,99812.47
2023-03-24T08:16:25.467Z,99815.09
2023-03-24T08:18:52.871Z,99821.25
2023-03-24T08:21:19.930Z,99819.06
2023-03-24T08:23:47.074Z,99832.09
2023-03-24T08:26:15.176Z,99814.91
2023-03-24T08:28:43.642Z,99824.44
2023-03-24T08:31:10.918Z,99822.84
2023-03-24T08:33:37.927Z,99843.22
2023-03-24T08:36:06.595Z,99843.16
2023-03-24T08:38:33.588Z,99837.00
2023-03-24T08:41:06.440Z,99843.44
2023-03-24T08:43:35.801Z,99839.72
2023-03-24T08:46:10.530Z,99841.97
2023-03-24T08:48:41.184Z,99843.88
2023-03-24T08:51:13.856Z,99863.22
2023-03-24T08:53:41.885Z,99870.78
2023-03-24T08:56:10.339Z,99873.88
2023-03-24T08:58:37.983Z,99875.38
2023-03-24T09:01:07.841Z,99870.97
2023-03-24T09:03:35.930Z,99885.25
2023-03-24T09:06:03.180Z,99876.03
2023-03-24T09:08:30.215Z,99873.56
2023-03-24T09:10:57.304Z,99909.72
2023-03-24T09:13:25.025Z,99886.59
2023-03-24T09:15:58.696Z,99884.88
2023-03-24T09:18:27.901Z,99881.75
2023-03-24T09:20:55.247Z,99885.59
2023-03-24T09:23:22.698Z,99878.72
2023-03-24T09:25:50.659Z,99892.38
2023-03-24T09:28:18.285Z,99892.56
2023-03-24T09:30:45.396Z,99883.59
2023-03-24T09:33:12.691Z,99889.81
2023-03-24T09:35:41.644Z,99887.38
2023-03-24T09:38:11.482Z,99888.88
2023-03-24T09:40:40.482Z,99881.00
2023-03-24T09:43:18.144Z,99887.16
2023-03-24T09:45:51.824Z,99885.22
2023-03-24T09:48:35.621Z,99898.28
2023-03-24T09:51:09.485Z,99891.19
2023-03-24T09:53:46.516Z,99886.25
2023-03-24T09:56:17.167Z,99896.78
2023-03-24T09:58:52.954Z,99889.38
2023-03-24T10:01:21.162Z,99882.94
2023-03-24T10:03:48.921Z,99892.69
2023-03-24T10:06:26.001Z,99892.66
2023-03-24T10:09:14.274Z,99900.72
2023-03-24T10:11:50.808Z,99900.38
2023-03-24T10:14:42.153Z,99912.31
2023-03-24T10:17:25.425Z,99903.06
2023-03-24T10:20:00.677Z,99906.34
2023-03-24T10:22:38.861Z,99918.22
2023-03-24T10:25:19.212Z,99935.38
2023-03-24T10:27:52.920Z,99924.19
2023-03-24T10:30:23.961Z,99932.53
2023-03-24T10:32:52.771Z,99922.34
2023-03-24T10:35:28.449Z,99926.00
2023-03-24T10:38:01.225Z,99923.25
2023-03-24T10:40:33.752Z,99919.72
2023-03-24T10:43:07.358Z,99934.84
2023-03-24T10:45:41.344Z,99930.09
2023-03-24T10:48:13.589Z,99939.50
2023-03-24T10:50:46.798Z,99937.59
2023-03-24T10:53:21.035Z,99936.78
2023-03-24T10:55:51.214Z,99942.72
2023-03-24T10:58:37.451Z,99945.97
2023-03-24T11:01:22.940Z,99951.88
2023-03-24T11:03:55.189Z,99949.19
2023-03-24T11:06:22.364Z,99950.84
2023-03-24T11:09:10.434Z,99954.13
2023-03-24T11:11:40.185Z,99951.44
2023-03-24T11:14:23.788Z,99963.78
2023-03-24T11:16:51.571Z,99956.13
2023-03-24T11:19:22.506Z,99949.03
2023-03-24T11:21:59.507Z,99951.91
2023-03-24T11:24:29.632Z,99966.47
2023-03-24T11:27:01.643Z,99961.66
2023-03-24T11:29:32.634Z,99965.69
2023-03-24T11:32:03.328Z,99953.63
2023-03-24T11:34:34.373Z,99970.53
2023-03-24T11:37:08.234Z,99957.47
2023-03-24T11:39:36.690Z,99971.63
2023-03-24T11:42:17.258Z,99974.28
2023-03-24T11:44:51.257Z,99972.69
2023-03-24T11:47:31.501Z,99974.47
2023-03-24T11:50:17.576Z,99975.16
2023-03-24T11:52:52.559Z,99988.16
2023-03-24T11:55:33.948Z,99980.31
2023-03-24T11:58:09.716Z,99979.81
2023-03-24T12:00:44.529Z,99973.56
2023-03-24T12:04:04.244Z,99990.00
2023-03-24T12:06:49.968Z,99981.81
2023-03-24T12:09:32.549Z,99981.84
2023-03-24T12:12:25.813Z,99989.06
2023-03-24T12:15:28.504Z,99986.94
2023-03-24T12:18:19.864Z,100002.50
2023-03-24T12:20:57.681Z,100002.44
2023-03-24T12:23:37.772Z,99993.59
2023-03-24T12:26:17.358Z,99998.94
2023-03-24T12:28:57.254Z,100008.81
2023-03-24T12:32:12.380Z,100002.13
2023-03-24T12:35:09.506Z,100000.91
2023-03-24T12:37:49.186Z,99990.31
2023-03-24T12:40:50.954Z,99996.22
2023-03-24T12:43:33.973Z,99994.50
2023-03-24T12:46:12.172Z,99974.81
2023-03-24T12:48:59.755Z,99996.75
2023-03-24T12:51:42.593Z,99979.28
2023-03-24T12:54:29.881Z,99983.09
2023-03-24T12:57:03.297Z,99972.38
2023-03-24T12:59:38.989Z,99972.91
2023-03-24T13:02:24.014Z,99976.84
2023-03-24T13:04:59.819Z,99974.72
2023-03-24T13:07:29.192Z,99982.72
2023-03-24T13:10:06.896Z,99975.13
2023-03-24T13:12:43.029Z,99961.09
2023-03-24T13:15:19.603Z,99963.69
2023-03-24T13:17:53.456Z,99959.50
2023-03-24T13:20:29.224Z,99970.72
2023-03-24T13:23:05.810Z,99958.16
2023-03-24T13:25:49.982Z,99947.88
2023-03-24T13:28:27.870Z,99954.69
2023-03-24T13:30:57.045Z,99950.16
2023-03-24T13:33:31.628Z,99946.81
2023-03-24T13:36:22.346Z,99939.72
2023-03-24T13:38:54.401Z,99948.53
2023-03-24T13:41:26.862Z,99947.06
2023-03-24T13:44:02.785Z,99946.22
2023-03-24T13:46:30.303Z,99965.06
2023-03-24T13:49:00.700Z,99962.56
2023-03-24T13:51:31.934Z,99965.53
2023-03-24T13:54:05.857Z,99966.97
2023-03-24T13:56:36.970Z,99959.81
2023-03-24T13:59:30.448Z,99963.88
2023-03-24T14:02:21.931Z,99955.34
2023-03-24T14:05:04.971Z,99966.88
2023-03-24T14:07:44.345Z,99969.53
2023-03-24T14:10:43.502Z,99951.84
2023-03-24T14:13:23.189Z,99953.75
2023-03-24T14:15:52.834Z,99939.00
2023-03-24T14:18:42.591Z,99949.38
2023-03-24T14:21:11.462Z,99958.72
2023-03-24T14:23:43.190Z,99953.41
2023-03-24T14:26:15.469Z,99972.19
2023-03-24T14:28:46.611Z,99952.16
2023-03-24T14:31:24.779Z,99958.84
2023-03-24T14:34:20.648Z,99959.94
2023-03-24T14:37:07.520Z,99956.34
2023-03-24T14:39:41.682Z,99957.28
2023-03-24T14:42:41.642Z,99963.50
2023-03-24T14:45:51.171Z,99971.00
2023-03-24T14:48:32.895Z,99963.19
2023-03-24T14:51:07.666Z,99968.59
2023-03-24T14:53:39.355Z,99966.47
2023-03-24T14:56:14.788Z,99958.72
2023-03-24T14:58:47.005Z,99964.91
2023-03-24T15:01:15.636Z,99955.78
2023-03-24T15:03:55.325Z,99956.59
2023-03-24T15:06:24.074Z,99962.25
2023-03-24T15:08:55.154Z,99958.50
2023-03-24T15:11:27.455Z,99951.00
2023-03-24T15:13:57.288Z,99966.31
2023-03-24T15:16:27.047Z,99978.91
2023-03-24T15:21:32.339Z,99970.88
2023-03-24T15:24:02.079Z,99978.06
2023-03-24T15:26:31.665Z,99972.41
2023-03-24T15:29:02.094Z,99972.38
2023-03-24T15:31:32.570Z,99961.03
2023-03-24T15:34:23.798Z,99971.03
2023-03-24T15:36:54.869Z,99962.22
2023-03-24T15:39:27.782Z,99970.00
2023-03-24T15:41:55.594Z,99959.81
2023-03-24T15:44:27.356Z,99966.81
2023-03-24T15:46:57.608Z,99960.38
2023-03-24T15:49:29.886Z,99976.19
2023-03-24T15:51:59.954Z,99969.47
2023-03-24T15:54:31.971Z,99974.03
2023-03-24T15:57:18.251Z,99967.09
2023-03-24T15:59:48.602Z,99984.75
2023-03-24T16:02:29.659Z,99977.25
2023-03-24T16:05:11.017Z,99969.78
2023-03-24T16:07:41.265Z,99973.00
2023-03-24T16:10:32.306Z,99971.31
2023-03-24T16:13:14.525Z,99968.09
2023-03-24T16:15:44.749Z,99962.19
2023-03-24T16:18:18.216Z,99964.84
2023-03-24T16:20:45.275Z,99965.84
2023-03-24T16:23:14.919Z,99971.66
2023-03-24T16:25:43.393Z,99974.25
2023-03-24T16:28:13.348Z,99969.78
2023-03-24T16:30:44.134Z,99968.91
2023-03-24T16:33:12.593Z,99982.47
2023-03-24T16:35:39.728Z,99977.25
2023-03-24T16:38:06.853Z,99986.28
2023-03-24T16:40:39.289Z,99975.44
2023-03-24T16:43:07.610Z,99977.34
2023-03-24T16:45:35.507Z,99977.34
2023-03-24T16:48:02.841Z,99973.53
2023-03-24T16:50:36.770Z,99972.94
2023-03-24T16:53:04.721Z,99973.88
2023-03-24T16:55:31.859Z,99982.31
2023-03-24T16:57:59.104Z,99981.09
2023-03-24T17:00:29.788Z,99983.41
2023-03-24T17:02:59.901Z,99975.09
2023-03-24T17:05:31.807Z,99972.03
2023-03-24T17:07:58.960Z,99983.56
2023-03-24T17:10:28.068Z,99987.06
2023-03-24T17:12:57.448Z,99984.84
2023-03-24T17:15:28.812Z,99988.72
2023-03-24T17:17:56.548Z,99991.97
2023-03-24T17:20:25.025Z,99992.53
2023-03-24T17:22:56.564Z,99985.03
2023-03-24T17:25:24.258Z,99978.03
2023-03-24T17:27:51.745Z,99993.84
2023-03-24T17:30:21.835Z,99994.06
2023-03-24T17:32:50.505Z,99992.06
2023-03-24T17:35:20.268Z,99995.81
2023-03-24T17:37:48.120Z,99998.97
2023-03-24T17:40:17.940Z,99997.25
2023-03-24T17:42:46.741Z,100007.00
2023-03-24T17:45:17.308Z,99999.03
2023-03-24T17:47:45.451Z,100009.66
2023-03-24T17:50:14.847Z,100005.44
2023-03-24T17:52:46.431Z,100013.78
2023-03-24T17:55:16.254Z,100008.66
2023-03-24T17:57:44.319Z,99997.72
2023-03-24T18:00:14.479Z,100003.75
2023-03-24T18:02:43.465Z,100005.50
2023-03-24T18:05:13.364Z,100014.31
2023-03-24T18:07:40.693Z,100016.19
2023-03-24T18:10:09.440Z,100010.19
2023-03-24T18:12:37.047Z,100022.31
2023-03-24T18:15:06.963Z,100021.06
2023-03-24T18:17:34.114Z,100026.06
2023-03-24T18:20:09.798Z,100023.59
2023-03-24T18:22:40.749Z,100024.56
2023-03-24T18:25:10.531Z,100034.50
2023-03-24T18:27:37.923Z,100031.47
2023-03-24T18:30:07.737Z,100036.19
2023-03-24T18:32:35.836Z,100037.88
2023-03-24T18:35:02.841Z,100019.41
2023-03-24T18:37:30.216Z,100032.59
2023-03-24T18:39:58.516Z,100035.59
2023-03-24T18:42:25.468Z,100032.72
2023-03-24T18:44:52.615Z,100025.34
2023-03-24T18:47:20.484Z,100031.91
2023-03-24T18:49:47.404Z,100034.13
2023-03-24T18:52:17.898Z,100033.09
2023-03-24T18:54:45.669Z,100036.56
2023-03-24T18:57:14.233Z,100034.69
2023-03-24T18:59:41.363Z,100042.53
2023-03-24T19:02:10.923Z,100029.16
2023-03-24T19:04:38.141Z,100041.59
2023-03-24T19:07:08.034Z,100036.34
2023-03-24T19:09:35.578Z,100045.69
2023-03-24T19:12:02.603Z,100039.34
2023-03-24T19:14:31.509Z,100042.47
2023-03-24T19:16:59.635Z,100047.63
2023-03-24T19:19:27.923Z,100029.50
2023-03-24T19:21:54.845Z,100041.75
2023-03-24T19:24:22.096Z,100042.53
2023-03-24T19:26:48.977Z,100039.47
2023-03-24T19:29:16.503Z,100038.88
2023-03-24T19:31:45.267Z,100042.56
2023-03-24T19:34:12.212Z,100038.59
2023-03-24T19:36:44.265Z,100047.88
2023-03-24T19:39:15.006Z,100039.91
2023-03-24T19:41:42.049Z,100044.63
2023-03-24T19:44:09.052Z,100044.19
2023-03-24T19:46:36.305Z,100049.94
2023-03-24T19:49:04.719Z,100045.97
2023-03-24T19:51:31.625Z,100055.44
2023-03-24T19:53:58.679Z,100044.22
2023-03-24T19:56:25.906Z,100036.97
2023-03-24T19:58:53.169Z,100043.47
2023-03-24T20:01:21.432Z,100030.78
2023-03-24T20:03:48.560Z,100031.59
2023-03-24T20:06:19.532Z,100023.16
2023-03-24T20:08:46.808Z,100026.28
2023-03-24T20:11:13.999Z,100027.13
2023-03-24T20:13:41.406Z,100032.19
2023-03-24T20:16:08.397Z,100024.56
2023-03-24T20:18:35.762Z,100024.56
2023-03-24T20:21:03.704Z,100025.97
2023-03-24T20:23:32.031Z,100019.63
2023-03-24T20:26:00.435Z,100011.25
2023-03-24T20:28:28.086Z,100012.44
2023-03-24T20:30:59.351Z,100011.50
2023-03-24T20:33:28.532Z,99996.47
2023-03-24T20:35:56.679Z,99997.63
2023-03-24T20:38:24.350Z,100005.25
2023-03-24T20:41:01.144Z,99998.97
2023-03-24T20:43:28.728Z,99992.50
2023-03-24T20:45:57.409Z,99998.97
2023-03-24T20:48:25.611Z,100004.72
2023-03-24T20:50:52.668Z,99999.41
2023-03-24T20:53:20.599Z,99990.88
2023-03-24T20:55:59.513Z,99997.66
2023-03-24T20:58:27.413Z,100001.97
2023-03-24T21:00:55.022Z,99993.19
2023-03-24T21:03:22.184Z,99986.50
2023-03-24T21:05:49.545Z,99990.16
2023-03-24T21:08:17.692Z,99991.22
2023-03-24T21:10:44.764Z,99988.19
2023-03-24T21:13:13.194Z,99994.16
2023-03-24T21:15:44.665Z,99993.66
2023-03-24T21:18:11.930Z,99985.16
2023-03-24T21:20:39.909Z,99986.06
2023-03-24T21:23:09.388Z,99981.03
2023-03-24T21:25:37.514Z,99969.44
2023-03-24T21:28:05.250Z,99975.91
2023-03-24T21:30:33.655Z,99977.13
2023-03-24T21:33:01.334Z,99983.69
2023-03-24T21:35:28.474Z,99986.72
2023-03-24T21:37:56.049Z,99980.31
2023-03-24T21:40:25.306Z,99972.50
2023-03-24T21:42:55.777Z,99967.19
2023-03-24T21:45:23.802Z,99966.03
2023-03-24T21:47:55.116Z,99968.09
2023-03-24T21:50:25.626Z,99975.03
2023-03-24T21:52:54.549Z,99968.09
2023-03-24T21:55:22.940Z,99956.75
2023-03-24T21:57:51.699Z,99958.91
2023-03-24T22:00:23.584Z,99953.97
2023-03-24T22:02:54.433Z,99947.03
2023-03-24T22:05:24.243Z,99941.72
2023-03-24T22:07:52.558Z,99943.38
2023-03-24T22:10:23.564Z,99937.78
2023-03-24T22:12:51.546Z,99943.00
2023-03-24T22:15:19.804Z,99933.75
2023-03-24T22:17:46.968Z,99935.84
2023-03-24T22:20:15.784Z,99933.66
2023-03-24T22:22:42.832Z,99927.75
2023-03-24T22:25:13.906Z,99926.00
2023-03-24T22:27:41.318Z,99931.31
2023-03-24T22:30:11.913Z,99928.06
2023-03-24T22:32:39.365Z,99926.44
2023-03-24T22:35:08.080Z,99931.72
2023-03-24T22:37:36.563Z,99928.94
2023-03-24T22:40:05.624Z,99939.53
2023-03-24T22:42:32.712Z,99936.09
2023-03-24T22:44:59.591Z,99940.19
2023-03-24T22:47:27.495Z,99936.53
2023-03-24T22:49:54.709Z,99937.50
2023-03-24T22:52:21.657Z,99936.69
2023-03-24T22:54:50.010Z,99940.34
2023-03-24T22:57:18.685Z,99937.34
2023-03-24T22:59:45.873Z,99935.84
2023-03-24T23:02:13.041Z,99940.13
2023-03-24T23:04:41.247Z,99939.47
2023-03-24T23:07:09.357Z,99937.50
2023-03-24T23:09:39.965Z,99937.03
2023-03-24T23:12:08.998Z,99935.34
2023-03-24T23:14:38.023Z,99933.44
2023-03-24T23:17:05.144Z,99929.09
2023-03-24T23:19:34.071Z,99936.44
2023-03-24T23:22:01.117Z,99927.91
2023-03-24T23:24:28.749Z,99925.72
2023-03-24T23:26:55.751Z,99931.59
2023-03-24T23:29:24.038Z,99928.50
2023-03-24T23:31:51.293Z,99935.69
2023-03-24T23:34:18.280Z,99937.34
2023-03-24T23:36:49.726Z,99936.75
2023-03-24T23:39:17.222Z,99931.88
2023-03-24T23:41:44.402Z,99936.16
2023-03-24T23:44:11.438Z,99934.53
2023-03-24T23:46:39.831Z,99936.97
2023-03-24T23:49:09.359Z,99930.88
2023-03-24T23:51:36.532Z,99922.78
2023-03-24T23:54:03.938Z,99930.28
2023-03-24T23:56:36.622Z,99925.19
2023-03-24T23:59:05.403Z,99924.16
